createdAt,value
2022-08-03T00:00:17.735Z,83.67
2022-08-03T00:03:10.384Z,83.34
2022-08-03T00:06:05.109Z,82.81
2022-08-03T00:08:58.432Z,83.11
2022-08-03T00:11:50.840Z,83.16
2022-08-03T00:14:44.454Z,83.50
2022-08-03T00:17:52.341Z,83.65
2022-08-03T00:20:46.085Z,83.54
2022-08-03T00:23:51.837Z,83.60
2022-08-03T00:26:47.352Z,83.72
2022-08-03T00:29:59.488Z,83.78
2022-08-03T00:32:54.926Z,83.83
2022-08-03T00:35:51.041Z,84.12
2022-08-03T00:38:43.380Z,84.08
2022-08-03T00:41:35.672Z,84.25
2022-08-03T00:44:27.909Z,84.17
2022-08-03T00:47:20.043Z,84.33
2022-08-03T00:50:13.860Z,84.73
2022-08-03T00:53:07.942Z,84.63
2022-08-03T00:56:01.431Z,84.36
2022-08-03T00:58:58.146Z,84.40
2022-08-03T01:01:50.394Z,84.86
2022-08-03T01:04:42.887Z,85.41
2022-08-03T01:07:47.335Z,85.12
2022-08-03T01:10:50.202Z,84.92
2022-08-03T01:14:04.288Z,84.94
2022-08-03T01:17:03.580Z,85.35
2022-08-03T01:19:55.625Z,85.90
2022-08-03T01:23:11.944Z,86.14
2022-08-03T01:26:07.393Z,86.37
2022-08-03T01:29:10.952Z,86.74
2022-08-03T01:32:53.556Z,86.77
2022-08-03T01:35:27.954Z,86.43
2022-08-03T01:38:25.798Z,86.51
2022-08-03T01:41:22.655Z,86.43
2022-08-03T01:44:29.827Z,86.11
2022-08-03T01:47:23.531Z,85.89
2022-08-03T01:50:17.012Z,85.84
2022-08-03T01:53:14.884Z,85.93
2022-08-03T01:56:09.979Z,85.61
2022-08-03T01:59:04.568Z,85.65
2022-08-03T02:02:27.740Z,85.49
2022-08-03T02:05:13.166Z,84.91
2022-08-03T02:08:08.967Z,84.69
2022-08-03T02:11:03.491Z,84.83
2022-08-03T02:13:57.882Z,85.41
2022-08-03T02:16:44.582Z,85.82
2022-08-03T02:19:38.048Z,85.41
2022-08-03T02:22:26.183Z,85.60
2022-08-03T02:25:19.608Z,85.67
2022-08-03T02:28:18.654Z,85.32
2022-08-03T02:31:19.188Z,85.01
2022-08-03T02:34:17.796Z,85.21
2022-08-03T02:37:11.842Z,85.32
2022-08-03T02:40:09.128Z,85.54
2022-08-03T02:43:06.568Z,85.42
2022-08-03T02:45:58.943Z,85.27
2022-08-03T02:48:53.322Z,85.44
2022-08-03T02:51:48.589Z,85.54
2022-08-03T02:54:41.872Z,85.55
2022-08-03T02:57:36.347Z,85.14
2022-08-03T03:00:28.054Z,85.43
2022-08-03T03:03:22.030Z,85.36
2022-08-03T03:06:15.238Z,85.09
2022-08-03T03:09:07.896Z,84.70
2022-08-03T03:12:00.710Z,85.03
2022-08-03T03:14:53.038Z,85.06
2022-08-03T03:17:46.695Z,85.12
2022-08-03T03:20:42.403Z,85.34
2022-08-03T03:23:36.499Z,85.09
2022-08-03T03:26:29.172Z,84.68
2022-08-03T03:29:22.343Z,84.97
2022-08-03T03:31:54.636Z,84.98
2022-08-03T03:34:47.531Z,85.07
2022-08-03T03:37:40.213Z,84.75
2022-08-03T03:40:32.653Z,84.70
2022-08-03T03:43:26.227Z,84.64
2022-08-03T03:46:18.530Z,84.36
2022-08-03T03:49:11.782Z,84.31
2022-08-03T03:52:04.481Z,84.66
2022-08-03T03:55:00.829Z,84.35
2022-08-03T03:57:53.621Z,84.07
2022-08-03T04:00:46.561Z,83.87
2022-08-03T04:03:39.766Z,83.87
2022-08-03T04:07:04.608Z,83.61
2022-08-03T04:10:16.433Z,83.73
2022-08-03T04:13:11.135Z,84.03
2022-08-03T04:16:04.622Z,84.04
2022-08-03T04:19:03.191Z,83.77
2022-08-03T04:22:00.069Z,83.44
2022-08-03T04:24:56.810Z,83.02
2022-08-03T04:28:19.700Z,83.23
2022-08-03T04:31:09.560Z,82.55
2022-08-03T04:34:03.191Z,82.49
2022-08-03T04:37:01.175Z,82.84
2022-08-03T04:39:51.253Z,82.85
2022-08-03T04:42:45.469Z,82.94
2022-08-03T04:45:40.071Z,83.20
2022-08-03T04:48:32.552Z,83.84
2022-08-03T04:51:28.091Z,83.70
2022-08-03T04:54:16.231Z,83.48
2022-08-03T04:57:08.390Z,83.77
2022-08-03T05:00:04.272Z,83.84
2022-08-03T05:02:56.906Z,83.39
2022-08-03T05:05:50.926Z,83.47
2022-08-03T05:08:46.915Z,83.32
2022-08-03T05:11:41.753Z,83.14
2022-08-03T05:14:34.062Z,82.83
2022-08-03T05:17:26.948Z,82.99
2022-08-03T05:20:19.262Z,82.94
2022-08-03T05:23:11.605Z,82.60
2022-08-03T05:26:04.132Z,81.99
2022-08-03T05:28:56.405Z,82.54
2022-08-03T05:31:48.493Z,82.52
2022-08-03T05:34:40.958Z,82.62
2022-08-03T05:37:32.977Z,82.67
2022-08-03T05:40:25.513Z,82.34
2022-08-03T05:43:19.336Z,82.26
2022-08-03T05:46:13.179Z,82.39
2022-08-03T05:48:54.618Z,82.60
2022-08-03T05:51:47.527Z,82.81
2022-08-03T05:54:56.897Z,82.62
2022-08-03T05:57:50.197Z,82.48
2022-08-03T06:00:42.228Z,82.54
2022-08-03T06:03:34.242Z,82.19
2022-08-03T06:06:30.501Z,82.59
2022-08-03T06:09:24.318Z,82.29
2022-08-03T06:12:36.674Z,82.32
2022-08-03T06:15:28.910Z,81.69
2022-08-03T06:18:21.351Z,81.34
2022-08-03T06:21:15.198Z,80.45
2022-08-03T06:24:00.608Z,79.97
2022-08-03T06:26:55.013Z,79.30
2022-08-03T06:29:47.330Z,79.16
2022-08-03T06:32:39.789Z,79.15
2022-08-03T06:35:32.114Z,78.25
2022-08-03T06:38:27.129Z,77.35
2022-08-03T06:41:20.683Z,76.74
2022-08-03T06:44:05.768Z,76.36
2022-08-03T06:46:58.883Z,75.42
2022-08-03T06:50:14.295Z,74.17
2022-08-03T06:53:04.430Z,73.51
2022-08-03T06:55:56.975Z,74.22
2022-08-03T06:58:49.977Z,73.03
2022-08-03T07:01:42.275Z,71.99
2022-08-03T07:04:34.843Z,70.47
2022-08-03T07:07:20.824Z,69.97
2022-08-03T07:10:13.728Z,70.51
2022-08-03T07:12:59.908Z,70.38
2022-08-03T07:15:55.363Z,70.41
2022-08-03T07:18:49.309Z,70.31
2022-08-03T07:21:41.931Z,69.60
2022-08-03T07:24:34.086Z,68.61
2022-08-03T07:27:30.614Z,67.78
2022-08-03T07:30:22.815Z,66.65
2022-08-03T07:33:16.612Z,66.44
2022-08-03T07:36:00.763Z,66.07
2022-08-03T07:38:53.027Z,65.20
2022-08-03T07:41:44.041Z,64.33
2022-08-03T07:44:36.354Z,62.91
2022-08-03T07:47:34.942Z,62.00
2022-08-03T07:50:28.534Z,63.00
2022-08-03T07:53:20.589Z,62.65
2022-08-03T07:56:13.921Z,61.94
2022-08-03T07:59:06.282Z,61.58
2022-08-03T08:01:58.572Z,61.46
2022-08-03T08:04:51.028Z,61.25
2022-08-03T08:07:43.473Z,61.19
2022-08-03T08:10:37.944Z,61.58
2022-08-03T08:13:22.508Z,60.26
2022-08-03T08:15:54.564Z,60.47
2022-08-03T08:18:26.734Z,59.64
2022-08-03T08:21:19.390Z,58.39
2022-08-03T08:24:18.058Z,58.13
2022-08-03T08:27:12.553Z,56.63
2022-08-03T08:30:11.478Z,56.60
2022-08-03T08:33:05.153Z,54.24
2022-08-03T08:35:57.608Z,53.72
2022-08-03T08:38:50.216Z,53.93
2022-08-03T08:41:45.937Z,53.11
2022-08-03T08:44:39.597Z,51.17
2022-08-03T08:47:51.159Z,50.40
2022-08-03T08:50:29.788Z,48.63
2022-08-03T08:53:17.501Z,46.98
2022-08-03T08:56:10.693Z,46.17
2022-08-03T08:59:04.168Z,47.45
2022-08-03T09:02:00.146Z,47.07
2022-08-03T09:04:52.730Z,46.06
2022-08-03T09:07:45.807Z,45.28
2022-08-03T09:10:38.629Z,46.43
2022-08-03T09:13:31.626Z,46.52
2022-08-03T09:16:24.675Z,46.64
2022-08-03T09:19:18.172Z,46.84
2022-08-03T09:22:10.967Z,45.91
2022-08-03T09:25:24.199Z,45.18
2022-08-03T09:28:58.050Z,43.89
2022-08-03T09:31:37.066Z,44.38
2022-08-03T09:34:29.267Z,44.31
2022-08-03T09:37:28.075Z,41.84
2022-08-03T09:40:40.607Z,38.38
2022-08-03T09:43:48.475Z,38.17
2022-08-03T09:46:52.981Z,38.75
2022-08-03T09:49:57.319Z,37.60
2022-08-03T09:52:52.850Z,35.67
2022-08-03T09:56:36.493Z,36.18
2022-08-03T09:59:05.767Z,39.00
2022-08-03T10:02:00.078Z,39.62
2022-08-03T10:04:53.728Z,39.31
2022-08-03T10:07:47.033Z,39.30
2022-08-03T10:10:45.784Z,38.82
2022-08-03T10:13:39.453Z,38.49
2022-08-03T10:16:37.014Z,37.20
2022-08-03T10:19:29.167Z,36.24
2022-08-03T10:22:23.604Z,36.36
2022-08-03T10:25:17.537Z,37.34
2022-08-03T10:28:14.514Z,36.62
2022-08-03T10:31:08.556Z,35.47
2022-08-03T10:34:03.382Z,36.06
2022-08-03T10:37:01.316Z,35.23
2022-08-03T10:39:57.128Z,36.47
2022-08-03T10:42:50.934Z,36.52
2022-08-03T10:45:35.488Z,36.87
2022-08-03T10:48:18.922Z,38.13
2022-08-03T10:51:12.684Z,37.62
2022-08-03T10:54:05.239Z,37.36
2022-08-03T10:57:20.401Z,38.52
2022-08-03T11:00:06.474Z,38.89
2022-08-03T11:03:09.027Z,39.39
2022-08-03T11:06:19.182Z,40.01
2022-08-03T11:09:21.592Z,40.42
2022-08-03T11:12:29.924Z,40.16
2022-08-03T11:15:36.301Z,39.22
2022-08-03T11:18:28.977Z,37.94
2022-08-03T11:21:21.189Z,38.02
2022-08-03T11:24:33.182Z,36.72
2022-08-03T11:27:27.059Z,36.64
2022-08-03T11:30:27.583Z,37.08
2022-08-03T11:33:32.007Z,36.70
2022-08-03T11:36:32.345Z,35.24
2022-08-03T11:39:38.776Z,35.28
2022-08-03T11:42:47.422Z,34.53
2022-08-03T11:45:40.147Z,34.51
2022-08-03T11:48:20.696Z,35.13
2022-08-03T11:51:25.604Z,35.75
2022-08-03T11:54:23.048Z,35.26
2022-08-03T11:59:01.383Z,34.48
2022-08-03T12:00:41.533Z,35.13
2022-08-03T12:03:36.367Z,35.95
2022-08-03T12:06:28.662Z,34.97
2022-08-03T12:09:21.173Z,34.69
2022-08-03T12:12:06.838Z,34.80
2022-08-03T12:14:59.482Z,34.58
2022-08-03T12:17:55.983Z,34.35
2022-08-03T12:20:51.162Z,34.06
2022-08-03T12:23:37.704Z,33.80
2022-08-03T12:26:32.010Z,35.39
2022-08-03T12:29:25.955Z,36.00
2022-08-03T12:32:19.269Z,34.74
2022-08-03T12:35:12.218Z,35.60
2022-08-03T12:38:04.777Z,35.17
2022-08-03T12:41:13.781Z,36.04
2022-08-03T12:44:08.072Z,36.85
2022-08-03T12:47:00.647Z,37.33
2022-08-03T12:49:54.324Z,38.01
2022-08-03T12:52:45.226Z,37.95
2022-08-03T12:55:57.454Z,38.78
2022-08-03T12:58:51.572Z,38.44
2022-08-03T13:01:54.790Z,37.68
2022-08-03T13:04:40.552Z,38.02
2022-08-03T13:07:45.782Z,38.62
2022-08-03T13:10:38.339Z,38.42
2022-08-03T13:13:44.172Z,37.59
2022-08-03T13:16:36.430Z,37.49
2022-08-03T13:19:29.957Z,36.52
2022-08-03T13:22:23.687Z,36.50
2022-08-03T13:25:07.084Z,37.38
2022-08-03T13:28:03.219Z,36.26
2022-08-03T13:30:58.381Z,35.60
2022-08-03T13:33:50.528Z,36.61
2022-08-03T13:37:07.574Z,36.12
2022-08-03T13:39:59.443Z,36.39
2022-08-03T13:42:52.338Z,35.74
2022-08-03T13:45:49.390Z,34.75
2022-08-03T13:48:43.601Z,35.04
2022-08-03T13:51:36.040Z,35.45
2022-08-03T13:54:27.183Z,35.60
2022-08-03T13:58:04.604Z,34.34
2022-08-03T14:00:32.856Z,34.05
2022-08-03T14:03:17.685Z,35.45
2022-08-03T14:06:10.024Z,35.88
2022-08-03T14:09:02.717Z,37.13
2022-08-03T14:12:07.802Z,37.46
2022-08-03T14:15:01.523Z,39.02
2022-08-03T14:17:54.371Z,39.79
2022-08-03T14:20:54.268Z,39.97
2022-08-03T14:23:48.757Z,40.93
2022-08-03T14:26:40.909Z,42.48
2022-08-03T14:29:33.131Z,42.47
2022-08-03T14:32:13.790Z,41.85
2022-08-03T14:35:07.243Z,42.09
2022-08-03T14:37:59.278Z,42.09
2022-08-03T14:40:52.126Z,39.70
2022-08-03T14:44:01.579Z,38.38
2022-08-03T14:46:54.437Z,38.74
2022-08-03T14:50:37.035Z,40.90
2022-08-03T14:52:58.570Z,42.16
2022-08-03T14:55:51.921Z,41.06
2022-08-03T14:58:44.015Z,40.74
2022-08-03T15:02:04.342Z,39.81
2022-08-03T15:04:48.417Z,39.52
2022-08-03T15:07:40.627Z,38.67
2022-08-03T15:10:15.284Z,37.56
2022-08-03T15:13:07.316Z,37.88
2022-08-03T15:15:59.625Z,38.31
2022-08-03T15:18:51.811Z,38.03
2022-08-03T15:21:46.513Z,38.00
2022-08-03T15:24:39.645Z,37.19
2022-08-03T15:27:31.706Z,36.93
2022-08-03T15:30:23.919Z,36.44
2022-08-03T15:33:16.177Z,36.04
2022-08-03T15:36:01.287Z,35.23
2022-08-03T15:38:54.750Z,34.85
2022-08-03T15:41:39.594Z,35.40
2022-08-03T15:44:32.437Z,35.45
2022-08-03T15:47:24.639Z,35.99
2022-08-03T15:50:09.874Z,35.85
2022-08-03T15:53:02.150Z,36.23
2022-08-03T15:55:54.555Z,35.87
2022-08-03T15:59:09.483Z,35.11
2022-08-03T16:01:59.162Z,35.56
2022-08-03T16:04:52.319Z,36.01
2022-08-03T16:08:04.004Z,36.72
2022-08-03T16:10:57.135Z,37.05
2022-08-03T16:14:13.691Z,36.85
2022-08-03T16:17:02.471Z,37.15
2022-08-03T16:19:55.374Z,37.93
2022-08-03T16:22:50.882Z,37.42
2022-08-03T16:25:49.367Z,37.15
2022-08-03T16:28:41.623Z,36.44
2022-08-03T16:31:33.945Z,36.26
2022-08-03T16:34:26.108Z,36.69
2022-08-03T16:37:37.075Z,36.07
2022-08-03T16:40:22.793Z,35.95
2022-08-03T16:43:17.941Z,35.79
2022-08-03T16:46:11.194Z,35.77
2022-08-03T16:49:03.333Z,35.09
2022-08-03T16:51:55.887Z,35.29
2022-08-03T16:54:52.984Z,34.84
2022-08-03T16:57:59.710Z,34.35
2022-08-03T17:00:51.971Z,33.93
2022-08-03T17:04:01.819Z,33.62
2022-08-03T17:06:56.853Z,33.90
2022-08-03T17:09:38.774Z,34.45
2022-08-03T17:12:22.252Z,34.68
2022-08-03T17:15:18.819Z,34.63
2022-08-03T17:18:17.951Z,35.53
2022-08-03T17:21:16.965Z,35.55
2022-08-03T17:24:19.744Z,35.76
2022-08-03T17:28:41.834Z,37.56
2022-08-03T17:30:21.006Z,39.15
2022-08-03T17:33:20.219Z,41.07
2022-08-03T17:36:08.022Z,42.25
2022-08-03T17:39:00.912Z,42.77
2022-08-03T17:41:55.544Z,42.79
2022-08-03T17:44:49.097Z,43.83
2022-08-03T17:47:43.465Z,44.38
2022-08-03T17:50:43.794Z,46.09
2022-08-03T17:53:44.478Z,45.67
2022-08-03T17:56:44.635Z,46.84
2022-08-03T17:59:50.847Z,48.63
2022-08-03T18:02:47.596Z,50.05
2022-08-03T18:06:10.515Z,51.98
2022-08-03T18:08:55.921Z,53.03
2022-08-03T18:11:44.523Z,53.63
2022-08-03T18:14:57.140Z,53.84
2022-08-03T18:17:55.411Z,54.07
2022-08-03T18:20:54.730Z,54.93
2022-08-03T18:23:51.079Z,56.05
2022-08-03T18:26:48.479Z,56.77
2022-08-03T18:29:36.959Z,57.26
2022-08-03T18:32:31.095Z,57.90
2022-08-03T18:35:26.850Z,58.83
2022-08-03T18:38:42.838Z,59.53
2022-08-03T18:41:44.588Z,60.24
2022-08-03T18:44:54.193Z,61.02
2022-08-03T18:48:00.081Z,62.01
2022-08-03T18:51:01.004Z,62.91
2022-08-03T18:54:03.865Z,64.04
2022-08-03T18:57:01.064Z,64.88
2022-08-03T19:00:00.280Z,64.68
2022-08-03T19:03:02.529Z,65.44
2022-08-03T19:06:08.576Z,65.73
2022-08-03T19:09:19.603Z,66.52
2022-08-03T19:12:30.949Z,66.96
2022-08-03T19:15:37.100Z,66.92
2022-08-03T19:18:43.880Z,66.95
2022-08-03T19:21:26.415Z,67.21
2022-08-03T19:24:23.381Z,67.77
2022-08-03T19:27:27.150Z,67.72
2022-08-03T19:30:39.151Z,68.30
2022-08-03T19:33:55.721Z,68.46
2022-08-03T19:36:49.765Z,68.77
2022-08-03T19:39:43.500Z,68.93
2022-08-03T19:42:41.689Z,69.59
2022-08-03T19:46:04.832Z,69.62
2022-08-03T19:48:58.148Z,69.93
2022-08-03T19:52:02.950Z,70.11
2022-08-03T19:55:02.336Z,70.38
2022-08-03T19:57:57.338Z,70.53
2022-08-03T20:00:49.728Z,70.52
2022-08-03T20:03:43.466Z,70.74
2022-08-03T20:06:36.222Z,70.47
2022-08-03T20:09:30.500Z,70.66
2022-08-03T20:12:13.365Z,71.09
2022-08-03T20:15:07.263Z,71.02
2022-08-03T20:17:56.546Z,71.05
2022-08-03T20:20:55.801Z,71.25
2022-08-03T20:24:00.015Z,71.36
2022-08-03T20:26:57.962Z,71.54
2022-08-03T20:30:04.979Z,71.58
2022-08-03T20:32:31.453Z,72.08
2022-08-03T20:35:24.741Z,72.51
2022-08-03T20:38:17.605Z,73.13
2022-08-03T20:41:12.622Z,73.26
2022-08-03T20:44:05.463Z,73.46
2022-08-03T20:47:00.703Z,73.34
2022-08-03T20:49:53.911Z,73.56
2022-08-03T20:52:49.718Z,73.36
2022-08-03T20:55:47.641Z,73.89
2022-08-03T20:58:50.434Z,74.12
2022-08-03T21:01:44.367Z,74.43
2022-08-03T21:04:37.085Z,74.48
2022-08-03T21:08:03.948Z,74.51
2022-08-03T21:10:52.691Z,74.44
2022-08-03T21:13:52.206Z,74.45
2022-08-03T21:16:48.749Z,74.71
2022-08-03T21:19:51.871Z,75.03
2022-08-03T21:22:47.541Z,75.22
2022-08-03T21:25:42.799Z,75.46
2022-08-03T21:28:36.628Z,75.56
2022-08-03T21:31:29.065Z,75.73
2022-08-03T21:34:12.025Z,75.70
2022-08-03T21:36:54.575Z,75.64
2022-08-03T21:39:50.710Z,75.60
2022-08-03T21:42:45.624Z,75.77
2022-08-03T21:45:45.672Z,76.01
2022-08-03T21:48:41.675Z,75.96
2022-08-03T21:51:36.556Z,76.29
2022-08-03T21:54:34.832Z,76.49
2022-08-03T21:57:30.531Z,76.45
2022-08-03T22:00:24.337Z,76.79
2022-08-03T22:03:17.946Z,76.80
2022-08-03T22:06:19.614Z,76.95
2022-08-03T22:09:12.853Z,76.87
2022-08-03T22:12:05.905Z,76.98
2022-08-03T22:15:01.971Z,76.82
2022-08-03T22:17:55.517Z,77.02
2022-08-03T22:20:53.179Z,76.81
2022-08-03T22:23:48.271Z,76.72
2022-08-03T22:27:05.053Z,77.31
2022-08-03T22:29:58.319Z,77.42
2022-08-03T22:32:44.649Z,77.71
2022-08-03T22:35:47.450Z,77.67
2022-08-03T22:38:42.401Z,77.45
2022-08-03T22:41:34.777Z,77.31
2022-08-03T22:44:27.455Z,77.48
2022-08-03T22:47:23.065Z,77.58
2022-08-03T22:50:31.624Z,77.87
2022-08-03T22:53:10.977Z,78.26
2022-08-03T22:56:04.734Z,78.21
2022-08-03T22:58:54.063Z,78.27
2022-08-03T23:01:48.413Z,78.36
2022-08-03T23:04:42.397Z,78.22
2022-08-03T23:07:38.067Z,78.36
2022-08-03T23:10:36.867Z,78.54
2022-08-03T23:13:32.429Z,78.50
2022-08-03T23:16:29.345Z,78.68
2022-08-03T23:19:28.176Z,78.84
2022-08-03T23:22:27.686Z,79.05
2022-08-03T23:25:22.811Z,79.22
2022-08-03T23:28:05.660Z,79.18
2022-08-03T23:30:59.866Z,79.20
2022-08-03T23:34:16.474Z,79.16
2022-08-03T23:37:10.795Z,79.47
2022-08-03T23:40:04.865Z,79.52
2022-08-03T23:42:59.096Z,79.57
2022-08-03T23:45:53.096Z,79.68
2022-08-03T23:48:48.414Z,79.43
2022-08-03T23:51:50.801Z,79.53
2022-08-03T23:54:54.061Z,79.79
2022-08-03T23:58:02.163Z,79.87
